Time;durP1;ratioP1;P1;durP2;ratioP2;P2;SDS_P1;SDS_P2;PMS_P1;PMS_P2;Temp;Humidity;BMP_temperature;BMP_pressure;BME280_temperature;BME280_humidity;BME280_pressure;Samples;Min_cycle;Max_cycle;Signal;HPM_P1;HPM_P2
2022/05/16 00:02:17;;;;;;;3.90;1.33;;;;;;;;;;5018494;28;20766;-71
2022/05/16 00:04:44;;;;;;;3.70;1.30;;;;;;;;;;5008698;28;20787;-69
2022/05/16 00:07:12;;;;;;;3.43;1.40;;;;;;;;;;4989865;28;20721;-71
2022/05/16 00:09:40;;;;;;;3.05;1.40;;;;;;;;;;5004811;28;20219;-70
2022/05/16 00:12:07;;;;;;;3.33;1.30;;;;;;;;;;5004344;28;20225;-70
2022/05/16 00:14:32;;;;;;;4.30;1.33;;;;;;;;;;4986506;28;20308;-69
2022/05/16 00:17:00;;;;;;;2.20;1.40;;;;;;;;;;5007721;28;20252;-70
2022/05/16 00:19:29;;;;;;;2.90;1.50;;;;;;;;;;5010069;28;20330;-69
2022/05/16 00:21:57;;;;;;;1.90;1.20;;;;;;;;;;5004057;28;20646;-70
2022/05/16 00:24:28;;;;;;;3.47;1.50;;;;;;;;;;5025429;28;20232;-69
2022/05/16 00:26:54;;;;;;;2.70;1.60;;;;;;;;;;4993771;28;20313;-70
2022/05/16 00:29:20;;;;;;;3.83;1.70;;;;;;;;;;4988952;28;20259;-70
2022/05/16 00:31:46;;;;;;;2.53;1.30;;;;;;;;;;5020936;28;20243;-69
2022/05/16 00:34:12;;;;;;;4.37;1.50;;;;;;;;;;5003753;28;20227;-69
2022/05/16 00:36:37;;;;;;;3.67;1.40;;;;;;;;;;5007242;28;20709;-69
2022/05/16 00:39:06;;;;;;;3.60;1.60;;;;;;;;;;5010623;28;20369;-69
2022/05/16 00:41:31;;;;;;;2.90;1.57;;;;;;;;;;5005445;28;20220;-69
2022/05/16 00:43:58;;;;;;;2.80;1.57;;;;;;;;;;5005798;28;20219;-69
2022/05/16 00:46:29;;;;;;;3.63;1.43;;;;;;;;;;5011423;28;20300;-70
2022/05/16 00:48:55;;;;;;;3.30;1.40;;;;;;;;;;4991936;28;20224;-70
2022/05/16 00:51:37;;;;;;;3.20;1.50;;;;;;;;;;4993269;28;20212;-69
2022/05/16 00:54:32;;;;;;;3.70;1.63;;;;;;;;;;5007309;28;20303;-69
2022/05/16 00:57:03;;;;;;;3.07;1.50;;;;;;;;;;4985998;28;20244;-70
2022/05/16 00:59:48;;;;;;;2.63;1.33;;;;;;;;;;4987915;28;20849;-70
2022/05/16 01:04:59;;;;;;;2.17;1.47;;;;;;;;;;5007341;28;20215;-70
2022/05/16 01:07:28;;;;;;;4.77;1.80;;;;;;;;;;4974173;28;20717;-69
2022/05/16 01:09:58;;;;;;;4.13;1.50;;;;;;;;;;4993392;28;20228;-71
2022/05/16 01:12:29;;;;;;;3.30;1.60;;;;;;;;;;5023574;28;20230;-69
2022/05/16 01:15:00;;;;;;;4.28;1.80;;;;;;;;;;5004840;28;20220;-70
2022/05/16 01:17:27;;;;;;;4.18;1.60;;;;;;;;;;4987608;28;20212;-68
2022/05/16 01:19:53;;;;;;;3.85;1.63;;;;;;;;;;5010784;28;20238;-70
2022/05/16 01:22:34;;;;;;;4.70;1.47;;;;;;;;;;5011137;28;20312;-69
2022/05/16 01:25:27;;;;;;;2.57;1.40;;;;;;;;;;4990346;28;20220;-72
2022/05/16 01:27:58;;;;;;;4.10;1.70;;;;;;;;;;5006652;28;20244;-69
2022/05/16 01:30:31;;;;;;;2.20;1.63;;;;;;;;;;5010212;28;20227;-70
2022/05/16 01:32:59;;;;;;;4.23;1.80;;;;;;;;;;5018698;28;20241;-70
2022/05/16 01:35:31;;;;;;;3.07;1.80;;;;;;;;;;5002305;28;20632;-70
2022/05/16 01:40:43;;;;;;;4.63;1.80;;;;;;;;;;5003613;28;20224;-70
2022/05/16 01:43:08;;;;;;;4.70;1.60;;;;;;;;;;5012000;28;20220;-70
2022/05/16 01:45:34;;;;;;;4.07;1.80;;;;;;;;;;5010865;28;20223;-69
2022/05/16 01:48:02;;;;;;;2.97;1.63;;;;;;;;;;5006178;28;20274;-72
2022/05/16 01:50:30;;;;;;;3.97;1.77;;;;;;;;;;4997247;28;20634;-69
2022/05/16 01:52:58;;;;;;;4.23;1.90;;;;;;;;;;5016332;28;20248;-71
2022/05/16 01:55:23;;;;;;;3.20;1.80;;;;;;;;;;5006178;28;20234;-71
2022/05/16 01:57:54;;;;;;;3.87;1.80;;;;;;;;;;4989601;28;20891;-69
2022/05/16 02:00:19;;;;;;;2.97;1.70;;;;;;;;;;4992021;28;20650;-71
2022/05/16 02:02:47;;;;;;;5.07;1.80;;;;;;;;;;5026108;28;20215;-71
2022/05/16 02:05:21;;;;;;;7.40;1.83;;;;;;;;;;4998333;28;20281;-69
2022/05/16 02:07:50;;;;;;;3.80;1.83;;;;;;;;;;4989537;28;20640;-71
2022/05/16 02:10:15;;;;;;;5.07;1.83;;;;;;;;;;5014523;28;20216;-70
2022/05/16 02:12:41;;;;;;;3.60;1.67;;;;;;;;;;5004666;28;20784;-69
2022/05/16 02:15:10;;;;;;;4.10;1.80;;;;;;;;;;5024102;28;20224;-68
2022/05/16 02:17:35;;;;;;;4.57;1.97;;;;;;;;;;4987752;28;20229;-69
2022/05/16 02:20:00;;;;;;;6.00;2.07;;;;;;;;;;5021313;28;20289;-71
2022/05/16 02:25:12;;;;;;;3.27;2.03;;;;;;;;;;5025528;28;20229;-70
2022/05/16 02:27:38;;;;;;;3.83;1.90;;;;;;;;;;5023226;28;20235;-69
2022/05/16 02:30:05;;;;;;;5.53;2.00;;;;;;;;;;5006920;28;20347;-71
2022/05/16 02:32:30;;;;;;;4.07;2.10;;;;;;;;;;5022696;28;20336;-70
2022/05/16 02:34:58;;;;;;;6.17;2.10;;;;;;;;;;5014165;28;20250;-70
2022/05/16 02:37:23;;;;;;;4.13;2.00;;;;;;;;;;4997993;28;20645;-70
2022/05/16 02:39:49;;;;;;;4.07;2.23;;;;;;;;;;5027179;28;20228;-69
2022/05/16 02:42:17;;;;;;;3.60;1.83;;;;;;;;;;5012146;28;20224;-69
2022/05/16 02:44:47;;;;;;;7.27;2.20;;;;;;;;;;4995672;28;20224;-70
2022/05/16 02:47:14;;;;;;;4.23;2.07;;;;;;;;;;4995758;28;20314;-70
2022/05/16 02:49:40;;;;;;;6.20;2.03;;;;;;;;;;4998582;28;20235;-71
2022/05/16 02:52:08;;;;;;;4.80;1.90;;;;;;;;;;4999037;28;20220;-69
2022/05/16 02:54:33;;;;;;;4.97;2.20;;;;;;;;;;4994604;28;20232;-70
2022/05/16 02:57:01;;;;;;;4.60;2.10;;;;;;;;;;5012608;28;20229;-70
2022/05/16 02:59:27;;;;;;;4.70;2.00;;;;;;;;;;5025672;28;20220;-69
2022/05/16 03:01:53;;;;;;;3.77;1.97;;;;;;;;;;5002898;28;20243;-70
2022/05/16 03:04:18;;;;;;;3.30;1.83;;;;;;;;;;5022281;28;20216;-70
2022/05/16 03:06:44;;;;;;;4.07;1.93;;;;;;;;;;5023349;28;20585;-68
2022/05/16 03:09:12;;;;;;;3.77;2.00;;;;;;;;;;5025153;28;20219;-70
2022/05/16 03:11:37;;;;;;;5.23;2.23;;;;;;;;;;5003127;28;20238;-71
2022/05/16 03:14:03;;;;;;;4.07;2.20;;;;;;;;;;5009399;28;20299;-70
2022/05/16 03:16:29;;;;;;;4.77;2.33;;;;;;;;;;5014055;28;20227;-70
2022/05/16 03:18:55;;;;;;;5.13;2.30;;;;;;;;;;5006367;28;20640;-70
2022/05/16 03:21:22;;;;;;;4.57;2.20;;;;;;;;;;5005975;28;20220;-70
2022/05/16 03:23:48;;;;;;;3.70;2.10;;;;;;;;;;5014359;28;20228;-70
2022/05/16 03:26:19;;;;;;;3.67;2.00;;;;;;;;;;4992060;28;20224;-69
2022/05/16 03:28:50;;;;;;;5.07;2.00;;;;;;;;;;5015039;28;20232;-70
2022/05/16 03:31:18;;;;;;;5.60;2.20;;;;;;;;;;5006008;28;20227;-70
2022/05/16 03:33:44;;;;;;;3.37;2.10;;;;;;;;;;5022613;28;20221;-70
2022/05/16 03:36:09;;;;;;;4.17;2.30;;;;;;;;;;4996405;28;20308;-70
2022/05/16 03:41:19;;;;;;;4.30;2.10;;;;;;;;;;5020060;28;20208;-71
2022/05/16 03:43:45;;;;;;;3.40;2.10;;;;;;;;;;5011898;28;20237;-70
2022/05/16 03:46:11;;;;;;;4.43;2.10;;;;;;;;;;4991831;28;20284;-70
2022/05/16 03:48:37;;;;;;;4.97;2.80;;;;;;;;;;5001222;28;20322;-70
2022/05/16 03:51:03;;;;;;;4.23;2.23;;;;;;;;;;5006102;28;20224;-70
2022/05/16 03:53:31;;;;;;;4.20;2.70;;;;;;;;;;5007412;28;20704;-71
2022/05/16 03:55:59;;;;;;;5.37;2.50;;;;;;;;;;4990475;28;20229;-71
2022/05/16 03:58:25;;;;;;;5.10;2.30;;;;;;;;;;5012903;28;20216;-69
2022/05/16 04:00:50;;;;;;;5.10;2.60;;;;;;;;;;5011736;28;20234;-70
2022/05/16 04:03:18;;;;;;;3.93;2.23;;;;;;;;;;5006768;28;20212;-68
2022/05/16 04:05:43;;;;;;;6.50;2.60;;;;;;;;;;5009742;28;20228;-69
2022/05/16 04:08:09;;;;;;;6.27;2.20;;;;;;;;;;5004081;28;20228;-70
2022/05/16 04:10:34;;;;;;;5.20;2.53;;;;;;;;;;5020895;28;20608;-70
2022/05/16 04:13:03;;;;;;;5.53;2.30;;;;;;;;;;5006373;28;20223;-71
2022/05/16 04:15:31;;;;;;;5.37;2.33;;;;;;;;;;5023274;28;20298;-70
2022/05/16 04:17:59;;;;;;;5.23;2.30;;;;;;;;;;5006948;28;20604;-70
2022/05/16 04:20:24;;;;;;;5.93;2.50;;;;;;;;;;5020003;28;20243;-70
2022/05/16 04:22:50;;;;;;;3.60;2.27;;;;;;;;;;4988892;28;20709;-73
2022/05/16 04:25:19;;;;;;;7.87;2.40;;;;;;;;;;4978498;28;20659;-70
2022/05/16 04:27:49;;;;;;;9.87;2.60;;;;;;;;;;4992046;28;20611;-71
2022/05/16 04:30:14;;;;;;;4.37;2.50;;;;;;;;;;4973561;28;20212;-70
2022/05/16 04:32:40;;;;;;;5.03;2.20;;;;;;;;;;5021457;28;20216;-71
2022/05/16 04:35:06;;;;;;;5.57;2.50;;;;;;;;;;4990966;28;20259;-70
2022/05/16 04:37:32;;;;;;;5.90;2.47;;;;;;;;;;4992254;28;20229;-70
2022/05/16 04:40:02;;;;;;;7.67;2.40;;;;;;;;;;5008895;28;20311;-68
2022/05/16 04:42:46;;;;;;;8.13;2.60;;;;;;;;;;5002881;28;20255;-69
2022/05/16 04:45:17;;;;;;;2.93;2.20;;;;;;;;;;4991748;28;20284;-69
2022/05/16 04:47:44;;;;;;;3.17;2.13;;;;;;;;;;5023896;28;20224;-69
2022/05/16 04:50:11;;;;;;;5.43;2.20;;;;;;;;;;5007255;28;20211;-69
2022/05/16 04:52:41;;;;;;;4.60;2.53;;;;;;;;;;5008277;28;20220;-69
2022/05/16 04:55:09;;;;;;;6.67;2.57;;;;;;;;;;5023004;28;20220;-69
2022/05/16 04:57:35;;;;;;;4.50;2.23;;;;;;;;;;5001090;28;20286;-69
2022/05/16 05:00:00;;;;;;;5.45;2.50;;;;;;;;;;5000203;28;20224;-69
2022/05/16 05:02:28;;;;;;;7.80;2.60;;;;;;;;;;4995563;28;20251;-69
2022/05/16 05:04:54;;;;;;;4.85;2.30;;;;;;;;;;5010790;28;20259;-69
2022/05/16 05:07:19;;;;;;;4.88;2.38;;;;;;;;;;4992386;28;20805;-70
2022/05/16 05:15:16;;;;;;;4.75;2.03;;;;;;;;;;5015206;28;20302;-68
2022/05/16 05:17:41;;;;;;;4.68;2.28;;;;;;;;;;5016230;28;20689;-66
2022/05/16 05:20:12;;;;;;;5.23;2.50;;;;;;;;;;5008643;28;20228;-68
2022/05/16 05:22:41;;;;;;;8.13;2.55;;;;;;;;;;5029363;28;20737;-69
2022/05/16 05:25:11;;;;;;;5.50;2.38;;;;;;;;;;5024695;28;20227;-71
2022/05/16 05:27:40;;;;;;;6.22;2.58;;;;;;;;;;5024754;28;20717;-68
2022/05/16 05:30:08;;;;;;;4.35;2.40;;;;;;;;;;4996808;28;20216;-67
2022/05/16 05:32:33;;;;;;;4.13;1.98;;;;;;;;;;5005676;28;20221;-70
2022/05/16 05:34:59;;;;;;;6.47;2.30;;;;;;;;;;5010971;28;20769;-68
2022/05/16 05:37:24;;;;;;;5.82;2.53;;;;;;;;;;5013289;28;20224;-68
2022/05/16 05:39:50;;;;;;;4.60;2.03;;;;;;;;;;5029471;28;20221;-68
2022/05/16 05:42:17;;;;;;;5.72;2.42;;;;;;;;;;5013821;28;20675;-69
2022/05/16 05:44:45;;;;;;;4.55;1.85;;;;;;;;;;4997176;28;20225;-69
2022/05/16 05:47:11;;;;;;;5.20;2.20;;;;;;;;;;4996443;28;20315;-68
2022/05/16 05:49:37;;;;;;;3.83;2.05;;;;;;;;;;5009640;28;20315;-70
2022/05/16 05:52:05;;;;;;;7.70;2.63;;;;;;;;;;4999555;28;20213;-71
2022/05/16 05:54:30;;;;;;;4.65;2.33;;;;;;;;;;4998365;28;20212;-69
2022/05/16 05:56:58;;;;;;;2.42;1.77;;;;;;;;;;5025796;28;20216;-70
2022/05/16 05:59:26;;;;;;;4.88;2.10;;;;;;;;;;5019444;28;20223;-70
2022/05/16 06:01:53;;;;;;;5.32;1.88;;;;;;;;;;5023540;28;20244;-69
2022/05/16 06:04:19;;;;;;;4.68;2.20;;;;;;;;;;4977647;28;20236;-70
2022/05/16 06:06:46;;;;;;;4.75;1.92;;;;;;;;;;5014648;28;20224;-69
2022/05/16 06:09:12;;;;;;;4.68;2.00;;;;;;;;;;5016259;28;20232;-71
2022/05/16 06:11:42;;;;;;;4.18;2.25;;;;;;;;;;5005958;28;20216;-71
2022/05/16 06:14:09;;;;;;;4.10;2.42;;;;;;;;;;5025671;28;20328;-70
2022/05/16 06:16:35;;;;;;;3.60;2.15;;;;;;;;;;5029938;28;20238;-69
2022/05/16 06:19:08;;;;;;;7.93;2.20;;;;;;;;;;5013045;28;20220;-69
2022/05/16 06:21:37;;;;;;;3.75;1.80;;;;;;;;;;5012881;28;20315;-69
2022/05/16 06:24:02;;;;;;;4.38;1.92;;;;;;;;;;5011513;28;20633;-71
2022/05/16 06:26:28;;;;;;;4.38;1.83;;;;;;;;;;4983474;28;20334;-71
2022/05/16 06:28:55;;;;;;;4.30;2.22;;;;;;;;;;5011661;28;20231;-69
2022/05/16 06:31:23;;;;;;;3.58;1.85;;;;;;;;;;5008749;28;20752;-70
2022/05/16 06:33:49;;;;;;;3.75;2.00;;;;;;;;;;5012979;28;20288;-70
2022/05/16 06:36:16;;;;;;;3.78;2.13;;;;;;;;;;4998529;28;20233;-69
2022/05/16 06:38:42;;;;;;;3.70;2.00;;;;;;;;;;4989001;28;20232;-69
2022/05/16 06:41:07;;;;;;;2.60;1.85;;;;;;;;;;5007295;28;20248;-70
2022/05/16 06:43:34;;;;;;;2.45;1.80;;;;;;;;;;4988524;28;20686;-69
2022/05/16 06:46:02;;;;;;;4.07;2.10;;;;;;;;;;5012173;28;20228;-69
2022/05/16 06:48:28;;;;;;;4.47;1.92;;;;;;;;;;5024463;28;20591;-70
2022/05/16 06:50:54;;;;;;;3.08;1.80;;;;;;;;;;4995417;28;20595;-70
2022/05/16 06:53:22;;;;;;;5.00;2.00;;;;;;;;;;5007769;28;20236;-69
2022/05/16 06:55:52;;;;;;;4.82;2.00;;;;;;;;;;5010572;28;20228;-69
2022/05/16 06:58:18;;;;;;;4.10;1.92;;;;;;;;;;4973977;28;20278;-69
2022/05/16 07:00:43;;;;;;;4.28;1.80;;;;;;;;;;5008388;28;20259;-69
2022/05/16 07:03:09;;;;;;;3.83;1.98;;;;;;;;;;4988123;28;20246;-70
2022/05/16 07:05:37;;;;;;;3.10;1.80;;;;;;;;;;5022576;28;20300;-70
2022/05/16 07:08:02;;;;;;;4.25;1.90;;;;;;;;;;5028097;28;20228;-69
2022/05/16 07:10:31;;;;;;;2.80;1.80;;;;;;;;;;5008154;28;20312;-71
2022/05/16 07:12:59;;;;;;;3.03;1.50;;;;;;;;;;5022285;28;20217;-72
2022/05/16 07:15:24;;;;;;;2.90;1.75;;;;;;;;;;5011452;28;20235;-69
2022/05/16 07:17:52;;;;;;;3.95;1.88;;;;;;;;;;5024058;28;20235;-70
2022/05/16 07:20:21;;;;;;;2.78;1.60;;;;;;;;;;5023887;28;20215;-69
2022/05/16 07:22:52;;;;;;;2.85;1.70;;;;;;;;;;5011251;28;20266;-71
2022/05/16 07:25:22;;;;;;;6.03;1.90;;;;;;;;;;5013096;28;20869;-70
2022/05/16 07:27:56;;;;;;;5.10;1.90;;;;;;;;;;4998961;28;20315;-70
2022/05/16 07:30:28;;;;;;;6.30;1.65;;;;;;;;;;4975611;28;20223;-69
2022/05/16 07:32:56;;;;;;;3.83;1.83;;;;;;;;;;5025788;28;20303;-70
2022/05/16 07:35:25;;;;;;;4.32;1.63;;;;;;;;;;5017397;28;20225;-70
2022/05/16 07:37:56;;;;;;;3.75;1.92;;;;;;;;;;5012590;28;20235;-69
2022/05/16 07:40:26;;;;;;;3.17;1.67;;;;;;;;;;5010310;28;20239;-70
2022/05/16 07:42:54;;;;;;;2.78;1.83;;;;;;;;;;5026257;28;20228;-70
2022/05/16 07:45:20;;;;;;;4.90;2.20;;;;;;;;;;5027610;28;20230;-70
2022/05/16 07:47:48;;;;;;;3.53;1.60;;;;;;;;;;4995916;28;20303;-71
2022/05/16 07:50:14;;;;;;;3.35;1.67;;;;;;;;;;4991015;28;20231;-69
2022/05/16 07:52:48;;;;;;;3.80;1.80;;;;;;;;;;4956027;28;20302;-70
2022/05/16 07:55:21;;;;;;;5.93;1.83;;;;;;;;;;5008041;28;20310;-70
2022/05/16 07:57:46;;;;;;;5.95;1.90;;;;;;;;;;5008809;28;20224;-71
2022/05/16 08:00:12;;;;;;;4.53;1.98;;;;;;;;;;5005756;28;20303;-70
2022/05/16 08:02:40;;;;;;;5.57;1.90;;;;;;;;;;5011048;28;20236;-70
2022/05/16 08:05:10;;;;;;;2.60;1.60;;;;;;;;;;4989033;28;20219;-69
2022/05/16 08:10:29;;;;;;;2.75;1.70;;;;;;;;;;4990495;28;20720;-71
2022/05/16 08:10:31;;;;;;;4.70;1.60;;;;;;;;;;5008145;28;20648;-70
2022/05/16 08:13:06;;;;;;;3.60;1.83;;;;;;;;;;4991740;28;20235;-71
2022/05/16 08:15:31;;;;;;;5.30;2.13;;;;;;;;;;4974829;28;20326;-70
2022/05/16 08:18:02;;;;;;;2.22;1.63;;;;;;;;;;4990001;28;20693;-70
2022/05/16 08:20:28;;;;;;;4.28;1.67;;;;;;;;;;4994789;28;20231;-70
2022/05/16 08:22:56;;;;;;;3.50;1.60;;;;;;;;;;4994682;28;20228;-71
2022/05/16 08:25:24;;;;;;;6.07;1.80;;;;;;;;;;4989977;28;20220;-71
2022/05/16 08:27:54;;;;;;;4.63;1.90;;;;;;;;;;5002903;28;20281;-71
2022/05/16 08:30:20;;;;;;;4.07;1.65;;;;;;;;;;5005611;28;20228;-71
2022/05/16 08:32:45;;;;;;;6.03;2.00;;;;;;;;;;5010100;28;20737;-70
2022/05/16 08:35:16;;;;;;;3.50;1.80;;;;;;;;;;4974572;28;20348;-70
2022/05/16 08:40:54;;;;;;;3.28;1.60;;;;;;;;;;5021568;28;20298;-70
2022/05/16 08:43:53;;;;;;;4.50;1.80;;;;;;;;;;5008679;28;20262;-70
2022/05/16 08:46:43;;;;;;;3.67;1.60;;;;;;;;;;5002060;28;20258;-70
2022/05/16 08:49:40;;;;;;;3.45;1.67;;;;;;;;;;4975179;28;20212;-70
2022/05/16 08:52:31;;;;;;;2.33;1.70;;;;;;;;;;5020259;28;20779;-70
2022/05/16 08:55:21;;;;;;;1.75;1.58;;;;;;;;;;5013176;28;20326;-70
2022/05/16 08:57:54;;;;;;;3.50;1.80;;;;;;;;;;4997170;28;20232;-70
2022/05/16 09:00:41;;;;;;;3.75;1.67;;;;;;;;;;4992369;28;20224;-70
2022/05/16 09:03:12;;;;;;;2.83;1.65;;;;;;;;;;4998322;28;20286;-71
2022/05/16 09:05:51;;;;;;;5.13;1.70;;;;;;;;;;5009033;28;20235;-71
2022/05/16 09:08:53;;;;;;;6.25;1.73;;;;;;;;;;5012745;28;20230;-71
2022/05/16 09:11:30;;;;;;;5.07;1.67;;;;;;;;;;4995596;28;20228;-71
2022/05/16 09:14:04;;;;;;;5.15;1.88;;;;;;;;;;5012686;28;20747;-71
2022/05/16 09:16:46;;;;;;;2.90;1.75;;;;;;;;;;4971310;28;20613;-71
2022/05/16 09:19:18;;;;;;;4.15;1.70;;;;;;;;;;5029253;28;20216;-71
2022/05/16 09:21:56;;;;;;;5.32;1.73;;;;;;;;;;5005866;28;20729;-71
2022/05/16 09:24:25;;;;;;;4.18;1.80;;;;;;;;;;5020416;28;20236;-71
2022/05/16 09:27:04;;;;;;;3.13;1.58;;;;;;;;;;5004047;28;20320;-71
2022/05/16 09:29:39;;;;;;;3.67;1.70;;;;;;;;;;5020978;28;20228;-70
2022/05/16 09:32:16;;;;;;;5.38;2.10;;;;;;;;;;4977019;28;20220;-71
2022/05/16 09:34:41;;;;;;;2.65;1.73;;;;;;;;;;5024468;28;20271;-71
2022/05/16 09:37:07;;;;;;;3.47;1.90;;;;;;;;;;5022743;28;20220;-71
2022/05/16 09:39:35;;;;;;;2.55;1.50;;;;;;;;;;5026077;28;20220;-70
2022/05/16 09:42:02;;;;;;;7.65;2.17;;;;;;;;;;5020749;28;20228;-70
2022/05/16 09:44:47;;;;;;;3.33;1.88;;;;;;;;;;5013826;28;20235;-70
2022/05/16 09:47:28;;;;;;;2.40;1.67;;;;;;;;;;5010949;28;20268;-70
2022/05/16 09:50:02;;;;;;;3.55;1.85;;;;;;;;;;5026880;28;20352;-70
2022/05/16 09:52:59;;;;;;;3.17;1.90;;;;;;;;;;5013641;28;20220;-70
2022/05/16 09:55:26;;;;;;;4.30;2.03;;;;;;;;;;5024153;28;20315;-70
2022/05/16 09:57:56;;;;;;;3.53;1.85;;;;;;;;;;5014030;28;20239;-70
2022/05/16 10:00:40;;;;;;;3.92;1.80;;;;;;;;;;5021204;28;20221;-70
2022/05/16 10:03:28;;;;;;;4.25;2.03;;;;;;;;;;5010937;28;20209;-69
2022/05/16 10:05:55;;;;;;;2.28;1.80;;;;;;;;;;5025463;28;20771;-70
2022/05/16 10:08:36;;;;;;;4.43;1.92;;;;;;;;;;4995890;28;20219;-70
2022/05/16 10:11:18;;;;;;;5.43;1.95;;;;;;;;;;4997810;28;20242;-71
2022/05/16 10:13:49;;;;;;;3.65;1.80;;;;;;;;;;4993974;28;20228;-71
2022/05/16 10:16:16;;;;;;;3.75;1.95;;;;;;;;;;5009200;28;20229;-70
2022/05/16 10:18:47;;;;;;;4.88;1.85;;;;;;;;;;4995001;28;20220;-70
2022/05/16 10:21:18;;;;;;;3.40;1.85;;;;;;;;;;5007412;28;20227;-70
2022/05/16 10:23:44;;;;;;;4.75;2.13;;;;;;;;;;4978514;28;20622;-70
2022/05/16 10:26:15;;;;;;;4.20;2.00;;;;;;;;;;5007653;28;20228;-70
2022/05/16 10:28:46;;;;;;;4.80;2.00;;;;;;;;;;5012951;28;20361;-70
2022/05/16 10:34:09;;;;;;;7.25;2.08;;;;;;;;;;5001152;28;20212;-72
2022/05/16 10:36:35;;;;;;;4.63;1.83;;;;;;;;;;4989385;28;20603;-71
2022/05/16 10:39:11;;;;;;;3.72;1.70;;;;;;;;;;4973863;28;20324;-70
2022/05/16 10:41:43;;;;;;;4.00;1.63;;;;;;;;;;4976256;28;20251;-71
2022/05/16 10:44:17;;;;;;;4.40;2.20;;;;;;;;;;5010888;28;20227;-72
2022/05/16 10:46:56;;;;;;;3.05;1.90;;;;;;;;;;5026978;28;20245;-70
2022/05/16 10:49:27;;;;;;;4.63;2.00;;;;;;;;;;4998214;28;20691;-71
2022/05/16 10:52:04;;;;;;;3.70;2.10;;;;;;;;;;5007701;28;20224;-71
2022/05/16 10:54:29;;;;;;;4.38;2.10;;;;;;;;;;4964306;28;20220;-71
2022/05/16 10:57:04;;;;;;;4.18;2.10;;;;;;;;;;5006721;28;20246;-71
2022/05/16 11:00:06;;;;;;;4.13;2.40;;;;;;;;;;5026436;28;20224;-72
2022/05/16 11:02:55;;;;;;;5.68;2.58;;;;;;;;;;5006756;28;20287;-69
2022/05/16 11:05:49;;;;;;;5.47;2.47;;;;;;;;;;5000248;28;20803;-71
2022/05/16 11:08:27;;;;;;;4.43;2.30;;;;;;;;;;4983400;28;20238;-70
2022/05/16 11:11:01;;;;;;;4.63;2.50;;;;;;;;;;4993102;28;20233;-71
2022/05/16 11:13:56;;;;;;;7.90;2.00;;;;;;;;;;4974885;28;20783;-70
2022/05/16 11:16:26;;;;;;;3.67;1.98;;;;;;;;;;5010835;28;20228;-70
2022/05/16 11:18:56;;;;;;;4.28;1.83;;;;;;;;;;5012149;28;20318;-71
2022/05/16 11:21:29;;;;;;;2.78;2.10;;;;;;;;;;5005126;28;20220;-71
2022/05/16 11:24:08;;;;;;;3.45;1.90;;;;;;;;;;4995808;28;20705;-71
2022/05/16 11:26:42;;;;;;;3.78;1.77;;;;;;;;;;5024503;28;20224;-69
2022/05/16 11:29:32;;;;;;;4.00;1.90;;;;;;;;;;5008517;28;20220;-70
2022/05/16 11:32:00;;;;;;;4.18;2.10;;;;;;;;;;5010321;28;20224;-71
2022/05/16 11:34:43;;;;;;;3.67;2.08;;;;;;;;;;5023328;28;20895;-72
2022/05/16 11:37:12;;;;;;;4.07;1.80;;;;;;;;;;4988347;28;20232;-71
2022/05/16 11:39:52;;;;;;;3.33;2.00;;;;;;;;;;5023296;28;20231;-71
2022/05/16 11:42:37;;;;;;;2.72;1.80;;;;;;;;;;5002025;28;20216;-70
2022/05/16 11:45:20;;;;;;;5.53;1.98;;;;;;;;;;4984391;28;20654;-71
2022/05/16 11:47:50;;;;;;;4.50;2.03;;;;;;;;;;5022406;28;20318;-69
2022/05/16 11:50:22;;;;;;;4.10;1.90;;;;;;;;;;5011947;28;20724;-70
2022/05/16 11:52:52;;;;;;;4.38;1.92;;;;;;;;;;4972883;28;20239;-70
2022/05/16 12:01:00;;;;;;;4.70;2.30;;;;;;;;;;5014396;28;20323;-70
2022/05/16 12:03:43;;;;;;;4.63;1.98;;;;;;;;;;5025344;28;20690;-70
2022/05/16 12:06:22;;;;;;;5.28;2.15;;;;;;;;;;4992245;28;20254;-72
2022/05/16 12:08:50;;;;;;;4.38;2.22;;;;;;;;;;5027360;28;20302;-72
2022/05/16 12:11:19;;;;;;;4.90;2.30;;;;;;;;;;5009143;28;20209;-70
2022/05/16 12:14:09;;;;;;;3.85;1.77;;;;;;;;;;5002258;28;20228;-70
2022/05/16 12:16:51;;;;;;;3.35;1.88;;;;;;;;;;4992953;28;20228;-70
2022/05/16 12:19:39;;;;;;;2.85;1.73;;;;;;;;;;4990171;28;20294;-70
2022/05/16 12:22:10;;;;;;;3.47;2.17;;;;;;;;;;5019690;28;20690;-71
2022/05/16 12:24:39;;;;;;;4.72;2.00;;;;;;;;;;5000530;28;20271;-70
2022/05/16 12:27:13;;;;;;;4.65;2.03;;;;;;;;;;5018409;28;20278;-71
2022/05/16 12:29:56;;;;;;;3.28;2.00;;;;;;;;;;5023003;28;20254;-71
2022/05/16 12:32:33;;;;;;;4.72;1.98;;;;;;;;;;5007415;28;20312;-70
2022/05/16 12:35:12;;;;;;;2.95;1.80;;;;;;;;;;5005461;28;20314;-71
2022/05/16 12:37:40;;;;;;;5.00;1.88;;;;;;;;;;5022570;28;20249;-71
2022/05/16 12:40:07;;;;;;;5.65;2.05;;;;;;;;;;5010599;28;20282;-71
2022/05/16 12:42:49;;;;;;;5.93;1.88;;;;;;;;;;5015081;28;20723;-69
2022/05/16 12:45:38;;;;;;;4.85;2.13;;;;;;;;;;5021874;28;20571;-71
2022/05/16 12:48:37;;;;;;;3.03;1.75;;;;;;;;;;5021233;28;20274;-71
2022/05/16 12:51:03;;;;;;;2.90;1.83;;;;;;;;;;5021527;28;20219;-71
2022/05/16 12:53:41;;;;;;;5.13;1.90;;;;;;;;;;5008468;28;20306;-71
2022/05/16 12:56:33;;;;;;;5.47;2.00;;;;;;;;;;5004249;28;20231;-71
2022/05/16 12:59:16;;;;;;;3.85;1.83;;;;;;;;;;4990102;28;20228;-73
2022/05/16 13:01:51;;;;;;;3.67;1.92;;;;;;;;;;5019220;28;20259;-70
2022/05/16 13:04:41;;;;;;;5.90;2.33;;;;;;;;;;5024223;28;20216;-70
2022/05/16 13:07:45;;;;;;;5.50;2.00;;;;;;;;;;5024772;28;20235;-70
2022/05/16 13:10:29;;;;;;;4.28;2.03;;;;;;;;;;4928160;28;20217;-72
2022/05/16 13:13:11;;;;;;;4.97;1.85;;;;;;;;;;5003954;28;20217;-70
2022/05/16 13:15:50;;;;;;;5.38;2.13;;;;;;;;;;5004541;28;20577;-70
2022/05/16 13:18:27;;;;;;;4.75;1.77;;;;;;;;;;5000504;28;20315;-70
2022/05/16 13:21:04;;;;;;;4.20;2.10;;;;;;;;;;4984559;28;20655;-70
2022/05/16 13:23:31;;;;;;;5.45;2.10;;;;;;;;;;5011239;28;20239;-72
2022/05/16 13:31:35;;;;;;;4.72;1.98;;;;;;;;;;4976628;28;20220;-73
2022/05/16 13:34:04;;;;;;;5.45;2.03;;;;;;;;;;5011263;28;20212;-71
2022/05/16 13:36:30;;;;;;;5.32;2.00;;;;;;;;;;4980243;28;20613;-70
2022/05/16 13:38:59;;;;;;;3.28;2.10;;;;;;;;;;4993211;28;20227;-71
2022/05/16 13:41:26;;;;;;;3.80;1.98;;;;;;;;;;4979404;28;20220;-72
2022/05/16 13:43:58;;;;;;;4.30;2.10;;;;;;;;;;5015119;28;20595;-71
2022/05/16 13:46:24;;;;;;;3.95;1.80;;;;;;;;;;5007091;28;20216;-71
2022/05/16 13:48:55;;;;;;;4.80;2.10;;;;;;;;;;4993512;28;20223;-70
2022/05/16 13:51:20;;;;;;;4.38;1.90;;;;;;;;;;5006788;28;20216;-70
2022/05/16 13:53:46;;;;;;;4.00;2.28;;;;;;;;;;5006344;28;20278;-70
2022/05/16 13:56:11;;;;;;;5.13;2.25;;;;;;;;;;5011617;28;20243;-72
2022/05/16 13:58:45;;;;;;;3.00;1.85;;;;;;;;;;4995753;28;20216;-71
2022/05/16 14:01:19;;;;;;;2.72;1.98;;;;;;;;;;5010189;28;20227;-71
2022/05/16 14:03:55;;;;;;;3.90;1.92;;;;;;;;;;5008493;28;20749;-71
2022/05/16 14:06:30;;;;;;;5.22;2.03;;;;;;;;;;5008589;28;20228;-70
2022/05/16 14:09:03;;;;;;;3.53;2.10;;;;;;;;;;5023243;28;20227;-70
2022/05/16 14:11:29;;;;;;;4.40;2.00;;;;;;;;;;5005946;28;20215;-69
2022/05/16 14:13:57;;;;;;;3.03;1.90;;;;;;;;;;4994664;28;20227;-70
2022/05/16 14:16:29;;;;;;;4.50;1.85;;;;;;;;;;5012272;28;20656;-70
2022/05/16 14:19:11;;;;;;;3.40;1.90;;;;;;;;;;4996680;28;20307;-70
2022/05/16 14:22:00;;;;;;;5.80;2.30;;;;;;;;;;4991159;28;20232;-70
2022/05/16 14:24:31;;;;;;;7.32;2.13;;;;;;;;;;5011022;28;20718;-71
2022/05/16 14:26:56;;;;;;;4.57;1.73;;;;;;;;;;5026117;28;20232;-70
2022/05/16 14:29:27;;;;;;;4.97;2.22;;;;;;;;;;4992641;28;20221;-70
2022/05/16 14:31:59;;;;;;;4.70;2.03;;;;;;;;;;5024457;28;20233;-71
2022/05/16 14:34:31;;;;;;;2.72;1.90;;;;;;;;;;5026902;28;20227;-72
2022/05/16 14:37:09;;;;;;;5.53;1.85;;;;;;;;;;4991973;28;20236;-70
2022/05/16 14:39:51;;;;;;;3.90;2.00;;;;;;;;;;5021335;28;20219;-70
2022/05/16 14:42:19;;;;;;;6.88;2.00;;;;;;;;;;5005687;28;20228;-71
2022/05/16 14:44:57;;;;;;;4.60;1.92;;;;;;;;;;5011249;28;20231;-70
2022/05/16 14:47:39;;;;;;;4.78;2.05;;;;;;;;;;5009190;28;20229;-71
2022/05/16 14:50:11;;;;;;;4.88;1.85;;;;;;;;;;4989400;28;20246;-72
2022/05/16 14:52:37;;;;;;;5.15;2.70;;;;;;;;;;5024643;28;20828;-73
2022/05/16 14:55:10;;;;;;;22.48;3.45;;;;;;;;;;5025938;28;20601;-70
2022/05/16 14:57:37;;;;;;;5.43;2.00;;;;;;;;;;4989205;28;20320;-70
2022/05/16 15:04:02;;;;;;;4.32;1.95;;;;;;;;;;5014394;28;20243;-70
2022/05/16 15:05:44;;;;;;;3.85;2.10;;;;;;;;;;4997174;28;20216;-70
2022/05/16 15:08:13;;;;;;;7.15;2.40;;;;;;;;;;5011728;28;20826;-70
2022/05/16 15:10:39;;;;;;;4.90;2.13;;;;;;;;;;4996219;28;20213;-71
2022/05/16 15:13:07;;;;;;;4.93;2.00;;;;;;;;;;5009588;28;20223;-71
2022/05/16 15:15:35;;;;;;;4.13;2.10;;;;;;;;;;4987303;28;20220;-73
2022/05/16 15:18:03;;;;;;;6.20;2.42;;;;;;;;;;5015525;28;20224;-71
2022/05/16 15:20:29;;;;;;;4.50;2.05;;;;;;;;;;5024056;28;20604;-70
2022/05/16 15:22:54;;;;;;;4.53;2.10;;;;;;;;;;5024452;28;20312;-72
2022/05/16 15:25:22;;;;;;;5.40;2.35;;;;;;;;;;5010665;28;20212;-70
2022/05/16 15:27:47;;;;;;;6.55;2.33;;;;;;;;;;5011293;28;20231;-71
2022/05/16 15:30:13;;;;;;;5.75;2.22;;;;;;;;;;5007561;28;20225;-71
2022/05/16 15:32:39;;;;;;;4.00;2.00;;;;;;;;;;4994393;28;20218;-70
2022/05/16 15:35:08;;;;;;;4.10;2.10;;;;;;;;;;4972731;28;21301;-70
2022/05/16 15:37:33;;;;;;;4.25;2.00;;;;;;;;;;4997597;28;20231;-71
2022/05/16 15:39:59;;;;;;;7.43;2.00;;;;;;;;;;5011752;28;20224;-73
2022/05/16 15:42:29;;;;;;;4.35;1.98;;;;;;;;;;5008563;28;20220;-71
2022/05/16 15:45:01;;;;;;;3.88;2.33;;;;;;;;;;5029933;28;20220;-71